createdAt,value
2022-10-27T00:01:56.824Z,48.63
2022-10-27T00:05:18.837Z,48.58
2022-10-27T00:08:40.863Z,46.72
2022-10-27T00:12:03.616Z,38.90
2022-10-27T00:15:25.711Z,47.10
2022-10-27T00:18:47.984Z,46.80
2022-10-27T00:22:09.961Z,49.45
2022-10-27T00:25:32.145Z,54.78
2022-10-27T00:28:54.312Z,43.75
2022-10-27T00:32:16.312Z,47.80
2022-10-27T00:35:38.246Z,47.92
2022-10-27T00:39:00.714Z,46.45
2022-10-27T00:42:22.720Z,51.30
2022-10-27T00:45:44.682Z,54.53
2022-10-27T00:49:11.495Z,46.03
2022-10-27T00:52:51.200Z,44.97
2022-10-27T00:56:13.823Z,42.13
2022-10-27T00:59:37.414Z,37.67
2022-10-27T01:02:59.694Z,39.75
2022-10-27T01:06:22.234Z,36.65
2022-10-27T01:09:45.182Z,36.25
2022-10-27T01:13:07.439Z,35.95
2022-10-27T01:16:32.154Z,37.63
2022-10-27T01:20:18.316Z,34.10
2022-10-27T01:23:58.755Z,33.33
2022-10-27T01:27:29.642Z,38.25
2022-10-27T01:31:11.250Z,34.78
2022-10-27T01:34:38.706Z,36.25
2022-10-27T01:38:20.674Z,39.75
2022-10-27T01:41:58.153Z,39.25
2022-10-27T01:45:29.528Z,44.38
2022-10-27T01:48:51.867Z,34.70
2022-10-27T01:52:39.032Z,33.95
2022-10-27T01:56:03.869Z,47.75
2022-10-27T02:00:08.199Z,41.63
2022-10-27T02:04:18.539Z,43.92
2022-10-27T02:07:57.264Z,38.40
2022-10-27T02:11:22.318Z,47.15
2022-10-27T02:14:45.370Z,41.35
2022-10-27T02:18:12.766Z,46.50
2022-10-27T02:21:36.834Z,42.90
2022-10-27T02:24:59.123Z,44.75
2022-10-27T02:28:26.789Z,41.40
2022-10-27T02:31:52.239Z,40.17
2022-10-27T02:35:17.116Z,43.30
2022-10-27T02:38:39.163Z,37.45
2022-10-27T02:42:02.703Z,45.17
2022-10-27T02:45:24.734Z,48.67
2022-10-27T02:48:46.634Z,45.97
2022-10-27T02:52:08.861Z,46.67
2022-10-27T02:55:30.791Z,47.40
2022-10-27T02:58:52.835Z,46.20
2022-10-27T03:02:14.923Z,54.38
2022-10-27T03:05:37.044Z,43.90
2022-10-27T03:08:59.281Z,51.50
2022-10-27T03:12:21.513Z,49.92
2022-10-27T03:15:45.430Z,47.65
2022-10-27T03:19:07.527Z,46.72
2022-10-27T03:22:29.500Z,55.53
2022-10-27T03:25:51.733Z,58.67
2022-10-27T03:29:13.800Z,46.55
2022-10-27T03:32:35.840Z,47.80
2022-10-27T03:35:58.481Z,54.33
2022-10-27T03:39:20.423Z,48.55
2022-10-27T03:42:43.333Z,55.08
2022-10-27T03:46:05.410Z,45.03
2022-10-27T03:52:54.289Z,46.15
2022-10-27T03:56:16.222Z,45.70
2022-10-27T03:59:38.424Z,40.90
2022-10-27T04:03:00.381Z,35.15
2022-10-27T04:06:22.290Z,47.50
2022-10-27T04:09:44.205Z,41.45
2022-10-27T04:13:07.303Z,47.63
2022-10-27T04:16:29.701Z,46.00
2022-10-27T04:19:51.683Z,45.70
2022-10-27T04:23:13.612Z,54.20
2022-10-27T04:26:35.568Z,48.80
2022-10-27T04:29:57.562Z,53.03
2022-10-27T04:33:19.545Z,43.65
2022-10-27T04:36:41.559Z,42.67
2022-10-27T04:40:03.899Z,39.10
2022-10-27T04:43:25.997Z,50.92
2022-10-27T04:46:48.098Z,35.47
2022-10-27T04:50:11.268Z,31.25
2022-10-27T04:53:34.175Z,37.10
2022-10-27T04:56:58.073Z,42.72
2022-10-27T05:00:28.958Z,27.67
2022-10-27T05:03:52.741Z,28.77
2022-10-27T05:07:14.737Z,29.50
2022-10-27T05:10:37.646Z,33.10
2022-10-27T05:13:59.720Z,31.63
2022-10-27T05:20:45.818Z,25.05
2022-10-27T05:24:08.661Z,25.65
2022-10-27T05:27:32.541Z,25.80
2022-10-27T05:31:01.299Z,25.73
2022-10-27T05:34:23.307Z,25.00
2022-10-27T05:37:50.030Z,27.08
2022-10-27T05:41:12.940Z,24.33
2022-10-27T05:44:34.923Z,26.58
2022-10-27T05:48:05.743Z,21.38
2022-10-27T05:51:27.973Z,27.30
2022-10-27T05:54:49.903Z,29.55
2022-10-27T05:58:12.150Z,25.60
2022-10-27T06:01:34.330Z,26.95
2022-10-27T06:04:56.344Z,33.35
2022-10-27T06:08:19.655Z,29.67
2022-10-27T06:11:41.986Z,34.10
2022-10-27T06:15:04.754Z,28.10
2022-10-27T06:18:27.088Z,31.33
2022-10-27T06:21:49.112Z,37.17
2022-10-27T06:25:11.099Z,32.40
2022-10-27T06:28:33.228Z,37.28
2022-10-27T06:31:58.078Z,42.95
2022-10-27T06:35:21.811Z,50.65
2022-10-27T06:38:44.516Z,51.38
2022-10-27T06:42:06.695Z,53.17
2022-10-27T06:45:31.173Z,48.70
2022-10-27T06:48:53.141Z,44.47
2022-10-27T06:52:15.205Z,49.67
2022-10-27T06:55:37.185Z,51.22
2022-10-27T06:58:59.152Z,59.28
2022-10-27T07:02:22.597Z,41.83
2022-10-27T07:05:44.674Z,35.38
2022-10-27T07:09:09.702Z,33.08
2022-10-27T07:12:32.196Z,30.83
2022-10-27T07:15:54.164Z,31.75
2022-10-27T07:19:16.214Z,21.83
2022-10-27T07:22:41.323Z,23.02
2022-10-27T07:26:03.524Z,21.13
2022-10-27T07:29:25.719Z,17.38
2022-10-27T07:32:48.097Z,16.60
2022-10-27T07:36:10.202Z,14.88
2022-10-27T07:39:32.206Z,11.95
2022-10-27T07:42:56.599Z,20.13
2022-10-27T07:46:18.594Z,12.85
2022-10-27T07:49:41.723Z,13.63
2022-10-27T07:53:04.197Z,12.02
2022-10-27T07:56:26.285Z,14.90
2022-10-27T07:59:48.317Z,16.98
2022-10-27T08:03:21.600Z,13.95
2022-10-27T08:06:43.642Z,16.90
2022-10-27T08:10:06.577Z,15.25
2022-10-27T08:13:34.910Z,13.15
2022-10-27T08:17:00.111Z,13.02
2022-10-27T08:20:25.442Z,15.18
2022-10-27T08:23:47.489Z,11.73
2022-10-27T08:27:09.604Z,12.95
2022-10-27T08:30:40.178Z,13.90
2022-10-27T08:34:04.461Z,12.70
2022-10-27T08:37:26.563Z,11.27
2022-10-27T08:44:27.074Z,14.48
2022-10-27T08:47:49.401Z,15.68
2022-10-27T08:51:18.973Z,15.95
2022-10-27T08:54:45.789Z,12.82
2022-10-27T08:58:21.012Z,14.02
2022-10-27T09:01:53.293Z,14.23
2022-10-27T09:05:50.362Z,14.45
2022-10-27T09:09:26.858Z,15.52
2022-10-27T09:13:02.996Z,12.48
2022-10-27T09:16:49.579Z,15.50
2022-10-27T09:20:33.125Z,16.95
2022-10-27T09:24:01.634Z,18.38
2022-10-27T09:27:24.787Z,16.70
2022-10-27T09:30:51.125Z,20.92
2022-10-27T09:34:28.395Z,26.65
2022-10-27T09:37:51.916Z,25.85
2022-10-27T09:41:14.136Z,25.27
2022-10-27T09:44:36.672Z,30.35
2022-10-27T09:48:06.672Z,24.15
2022-10-27T09:51:42.336Z,29.58
2022-10-27T09:55:04.620Z,26.92
2022-10-27T09:58:26.623Z,23.50
2022-10-27T10:01:57.572Z,25.85
2022-10-27T10:05:26.642Z,30.83
2022-10-27T10:08:48.574Z,27.48
2022-10-27T10:12:25.164Z,25.40
2022-10-27T10:15:47.371Z,27.55
2022-10-27T10:19:19.254Z,25.52
2022-10-27T10:22:43.161Z,28.73
2022-10-27T10:26:20.716Z,26.77
2022-10-27T10:29:50.800Z,25.73
2022-10-27T10:33:16.676Z,25.80
2022-10-27T10:36:40.722Z,27.27
2022-10-27T10:40:14.894Z,33.05
2022-10-27T10:43:36.876Z,31.30
2022-10-27T10:46:59.448Z,27.95
2022-10-27T10:50:21.996Z,30.83
2022-10-27T10:53:50.787Z,32.63
2022-10-27T10:57:37.004Z,29.17
2022-10-27T11:01:02.543Z,31.08
2022-10-27T11:04:27.968Z,27.73
2022-10-27T11:07:51.092Z,30.95
2022-10-27T11:11:32.189Z,33.22
2022-10-27T11:14:56.489Z,28.48
2022-10-27T11:18:25.134Z,20.85
2022-10-27T11:22:05.971Z,21.98
2022-10-27T11:29:03.835Z,15.88
2022-10-27T11:32:51.064Z,12.20
2022-10-27T11:36:35.053Z,13.18
2022-10-27T11:40:23.422Z,16.98
2022-10-27T11:43:55.483Z,11.20
2022-10-27T11:47:41.367Z,9.75
2022-10-27T11:51:12.860Z,12.77
2022-10-27T11:54:34.931Z,16.33
2022-10-27T11:58:24.881Z,17.73
2022-10-27T12:02:13.708Z,13.85
2022-10-27T12:05:38.709Z,12.23
2022-10-27T12:09:31.078Z,12.75
2022-10-27T12:13:39.951Z,10.75
2022-10-27T12:17:28.674Z,13.20
2022-10-27T12:20:59.814Z,10.98
2022-10-27T12:24:34.315Z,13.55
2022-10-27T12:27:58.365Z,10.20
2022-10-27T12:31:25.929Z,13.65
2022-10-27T12:34:56.184Z,10.52
2022-10-27T12:41:55.443Z,11.60
2022-10-27T12:45:35.451Z,11.82
2022-10-27T12:49:37.404Z,10.93
2022-10-27T12:57:01.546Z,11.45
2022-10-27T13:04:01.575Z,11.18
2022-10-27T13:07:57.486Z,11.18
2022-10-27T13:11:54.798Z,13.85
2022-10-27T13:15:41.355Z,7.93
2022-10-27T13:19:20.027Z,9.23
2022-10-27T13:22:55.474Z,10.57
2022-10-27T13:26:34.811Z,12.10
2022-10-27T13:30:08.528Z,9.77
2022-10-27T13:33:38.778Z,12.23
2022-10-27T13:40:53.790Z,8.38
2022-10-27T13:44:30.405Z,11.57
2022-10-27T13:48:08.095Z,8.77
2022-10-27T13:51:49.032Z,8.60
2022-10-27T13:55:34.131Z,6.82
2022-10-27T13:59:12.181Z,7.55
2022-10-27T14:02:46.487Z,5.75
2022-10-27T14:06:15.253Z,7.57
2022-10-27T14:09:45.535Z,8.82
2022-10-27T14:16:45.038Z,10.90
2022-10-27T14:20:20.579Z,7.88
2022-10-27T14:23:42.969Z,7.63
2022-10-27T14:27:06.047Z,6.72
2022-10-27T14:30:28.687Z,7.68
2022-10-27T14:33:52.627Z,7.15
2022-10-27T14:37:32.950Z,5.28
2022-10-27T14:40:55.366Z,7.47
2022-10-27T14:44:25.986Z,7.57
2022-10-27T14:47:56.965Z,8.82
2022-10-27T14:51:19.892Z,9.82
2022-10-27T14:54:46.808Z,7.82
2022-10-27T14:58:21.106Z,8.43
2022-10-27T15:01:44.945Z,9.50
2022-10-27T15:05:21.749Z,8.35
2022-10-27T15:08:44.384Z,6.75
2022-10-27T15:12:18.487Z,13.40
2022-10-27T15:15:46.860Z,9.10
2022-10-27T15:19:17.110Z,9.27
2022-10-27T15:22:39.546Z,10.93
2022-10-27T15:26:03.052Z,7.05
2022-10-27T15:29:25.122Z,14.27
2022-10-27T15:32:47.464Z,9.73
2022-10-27T15:36:21.002Z,11.13
2022-10-27T15:39:43.202Z,10.95
2022-10-27T15:43:22.359Z,8.52
2022-10-27T15:46:48.187Z,10.00
2022-10-27T15:50:38.280Z,10.88
2022-10-27T15:54:00.941Z,13.50
2022-10-27T15:57:52.449Z,9.43
2022-10-27T16:01:35.049Z,10.60
2022-10-27T16:04:57.182Z,10.63
2022-10-27T16:08:19.247Z,11.73
2022-10-27T16:11:42.692Z,13.65
2022-10-27T16:15:07.350Z,12.52
2022-10-27T16:18:29.411Z,14.32
2022-10-27T16:21:51.627Z,13.57
2022-10-27T16:25:15.794Z,10.85
2022-10-27T16:28:42.116Z,10.88
2022-10-27T16:32:04.426Z,17.88
2022-10-27T16:35:26.653Z,17.63
2022-10-27T16:38:48.892Z,11.93
2022-10-27T16:42:11.793Z,21.02
2022-10-27T16:45:33.845Z,13.40
2022-10-27T16:48:56.028Z,18.48
2022-10-27T16:52:18.134Z,11.80
2022-10-27T16:55:40.596Z,15.55
2022-10-27T16:59:04.401Z,13.75
2022-10-27T17:02:26.529Z,12.05
2022-10-27T17:05:48.862Z,13.88
2022-10-27T17:09:12.286Z,12.80
2022-10-27T17:12:34.325Z,20.55
2022-10-27T17:16:00.915Z,14.05
2022-10-27T17:19:23.021Z,16.27
2022-10-27T17:22:45.739Z,16.73
2022-10-27T17:26:10.859Z,18.25
2022-10-27T17:29:33.145Z,18.90
2022-10-27T17:32:55.168Z,20.00
2022-10-27T17:36:18.275Z,19.23
2022-10-27T17:39:40.322Z,19.67
2022-10-27T17:43:02.519Z,18.63
2022-10-27T17:46:24.809Z,23.58
2022-10-27T17:49:47.000Z,21.08
2022-10-27T17:53:09.049Z,20.17
2022-10-27T17:56:33.116Z,26.10
2022-10-27T17:59:58.720Z,22.38
2022-10-27T18:03:24.843Z,21.65
2022-10-27T18:06:47.795Z,20.77
2022-10-27T18:10:10.388Z,16.38
2022-10-27T18:13:34.276Z,10.35
2022-10-27T18:17:00.576Z,11.43
2022-10-27T18:20:25.290Z,9.48
2022-10-27T18:24:01.469Z,12.15
2022-10-27T18:27:24.566Z,7.13
2022-10-27T18:30:46.772Z,7.13
2022-10-27T18:34:11.012Z,7.40
2022-10-27T18:37:35.054Z,7.63
2022-10-27T18:40:58.027Z,7.75
2022-10-27T18:44:20.232Z,10.98
2022-10-27T18:47:44.323Z,12.20
2022-10-27T18:51:13.082Z,12.40
2022-10-27T18:54:36.218Z,12.45
2022-10-27T18:57:58.464Z,11.70
2022-10-27T19:01:21.715Z,15.43
2022-10-27T19:04:43.940Z,15.40
2022-10-27T19:08:09.828Z,19.25
2022-10-27T19:11:35.180Z,20.40
2022-10-27T19:14:58.800Z,18.40
2022-10-27T19:18:23.938Z,15.27
2022-10-27T19:21:46.018Z,23.48
2022-10-27T19:25:12.412Z,24.63
2022-10-27T19:28:37.699Z,22.33
2022-10-27T19:32:00.099Z,22.33
2022-10-27T19:35:22.745Z,28.23
2022-10-27T19:38:49.416Z,17.48
2022-10-27T19:42:11.556Z,21.40
2022-10-27T19:45:35.826Z,19.45
2022-10-27T19:49:00.569Z,23.25
2022-10-27T19:52:26.555Z,19.27
2022-10-27T19:55:52.218Z,22.08
2022-10-27T19:59:30.010Z,27.60
2022-10-27T20:02:58.168Z,16.73
2022-10-27T20:06:20.979Z,22.98
2022-10-27T20:09:56.726Z,22.83
2022-10-27T20:13:23.236Z,18.70
2022-10-27T20:20:56.581Z,16.38
2022-10-27T20:24:55.196Z,15.05
2022-10-27T20:28:20.100Z,15.80
2022-10-27T20:31:45.070Z,15.63
2022-10-27T20:35:12.857Z,14.38
2022-10-27T20:38:37.134Z,17.67
2022-10-27T20:42:00.011Z,15.30
2022-10-27T20:45:22.074Z,11.00
2022-10-27T20:48:47.398Z,11.00
2022-10-27T20:52:10.029Z,11.20
2022-10-27T20:55:32.698Z,13.15
2022-10-27T20:58:56.023Z,11.18
2022-10-27T21:02:18.865Z,13.98
2022-10-27T21:05:45.550Z,12.68
2022-10-27T21:09:10.914Z,10.27
2022-10-27T21:12:33.536Z,9.85
2022-10-27T21:16:00.359Z,9.95
2022-10-27T21:19:22.909Z,12.18
2022-10-27T21:22:48.331Z,10.05
2022-10-27T21:26:11.860Z,12.05
2022-10-27T21:29:33.933Z,14.13
2022-10-27T21:32:56.871Z,12.35
2022-10-27T21:36:21.645Z,10.45
2022-10-27T21:39:43.829Z,12.30
2022-10-27T21:43:08.939Z,7.88
2022-10-27T21:46:34.378Z,9.98
2022-10-27T21:49:56.942Z,9.18
2022-10-27T21:53:20.671Z,9.07
2022-10-27T21:56:43.864Z,5.68
2022-10-27T22:00:09.506Z,7.45
2022-10-27T22:03:31.768Z,8.00
2022-10-27T22:06:53.690Z,9.55
2022-10-27T22:10:15.795Z,10.05
2022-10-27T22:13:37.868Z,11.05
2022-10-27T22:16:59.889Z,9.55
2022-10-27T22:20:21.886Z,9.43
2022-10-27T22:23:43.913Z,8.30
2022-10-27T22:27:05.910Z,6.68
2022-10-27T22:30:29.863Z,7.18
2022-10-27T22:33:52.427Z,9.60
2022-10-27T22:37:14.530Z,8.55
2022-10-27T22:40:36.531Z,8.15
2022-10-27T22:43:58.601Z,11.18
2022-10-27T22:47:20.648Z,9.45
2022-10-27T22:50:42.642Z,11.40
2022-10-27T22:54:04.696Z,7.53
2022-10-27T22:57:29.481Z,11.20
2022-10-27T23:00:51.476Z,8.60
2022-10-27T23:04:15.052Z,8.60
2022-10-27T23:07:37.041Z,8.10
2022-10-27T23:11:01.556Z,10.00
2022-10-27T23:14:23.576Z,11.05
2022-10-27T23:17:45.526Z,9.07
2022-10-27T23:21:11.854Z,9.30
2022-10-27T23:24:33.779Z,12.50
2022-10-27T23:27:55.952Z,12.07
2022-10-27T23:31:18.904Z,7.22
2022-10-27T23:34:40.819Z,11.07
2022-10-27T23:38:03.062Z,9.70
2022-10-27T23:41:25.691Z,7.38
2022-10-27T23:44:47.633Z,7.85
2022-10-27T23:48:09.605Z,10.27
2022-10-27T23:51:31.999Z,10.95
2022-10-27T23:54:53.953Z,9.95
2022-10-27T23:58:15.894Z,7.93
